Historique des mesures à Cassis (13260), France
Quotidien Résumé Avril 19, 2017 Unités:  US    Métrique   Métrique/US
« Précédent (Jour)
Suivant (Jour) »
Quotidien Hebdomadaire Mensuel Annuel Période au choix
  Maximum: Minimum: Moyenne:
Température: 32 °F 47.7 °F 54.7 °F
Point de rosée: 32 °F 22.8 °F 28.2 °F
Humidité: Humidity % 29 % 34 %
Vitesse du vent: WindSpeedKMH mph 0.0 mph 8.4 mph
Rafales: WindSpeedGustKMH mph - -
Vent:- - South
Pression: 0 in 29.9 in -
Précipitations: 0 in    
Historical Graphs
 
 
Mesures pour : Avril 19, 2017
Heure Temperature Point de rosée Pression Vent Vitesse du vent Rafales Humidité Pluie (par heure) Conditions
32 °F 32 °F 0 in Calm     Humidity % 0 in SoftwareType W/m2
00:11 52.3 °F 23.2 °F 29.9 in North 7.2 mph 11.1 mph 32 % 0 in open2300-1.11 W/m2
01:11 52 °F 22.8 °F 29.9 in NNW 10.1 mph 10.1 mph 32 % 0 in open2300-1.11 W/m2
02:11 51.1 °F 23.5 °F 30 in NNW 7.6 mph 7.6 mph 34 % 0 in open2300-1.11 W/m2
03:11 49.3 °F 23.2 °F 30 in North 5.0 mph 8.2 mph 36 % 0 in open2300-1.11 W/m2
04:10 48.7 °F 23.5 °F 30 in NNW 6.8 mph 27.4 mph 37 % 0 in open2300-1.11 W/m2
05:11 47.8 °F 24.1 °F 30 in Calm   4.0 mph 39 % 0 in open2300-1.11 W/m2
06:10 47.8 °F 23.4 °F 30 in North 1.4 mph 6.1 mph 38 % 0 in open2300-1.11 W/m2
07:11 47.7 °F 23.2 °F 30 in North 5.0 mph 6.4 mph 38 % 0 in open2300-1.11 W/m2
08:11 50.5 °F 25.7 °F 30 in NNW 2.1 mph 4.3 mph 38 % 0 in open2300-1.11 W/m2
09:10 52.9 °F 28.6 °F 30 in NW 2.9 mph 6.4 mph 39 % 0 in open2300-1.11 W/m2
10:11 54.7 °F 30.7 °F 30 in NW 9.3 mph 11.1 mph 40 % 0 in open2300-1.11 W/m2
11:10 59.9 °F 34.9 °F 30 in WNW 8.2 mph 8.2 mph 39 % 0 in open2300-1.11 W/m2
12:11 63.1 °F 34.9 °F 30 in SSW 2.6 mph 7.2 mph 35 % 0 in open2300-1.11 W/m2
13:11 63 °F 33.3 °F 30 in SSE 2.1 mph 4.0 mph 33 % 0 in open2300-1.11 W/m2
14:11 62.8 °F 33.1 °F 30 in WSW 13.7 mph 13.7 mph 33 % 0 in open2300-1.11 W/m2
15:11 63.1 °F 33.4 °F 30 in NNW 13.0 mph 13.0 mph 33 % 0 in open2300-1.11 W/m2
16:11 62.2 °F 31.8 °F 30 in NNE 1.1 mph 13.7 mph 32 % 0 in open2300-1.11 W/m2
17:11 63.1 °F 31.3 °F 30 in West 16.9 mph 16.9 mph 30 % 0 in open2300-1.11 W/m2
18:11 61.9 °F 29.1 °F 30 in NNE 15.1 mph 19.8 mph 29 % 0 in open2300-1.11 W/m2
19:10 60.1 °F 28.6 °F 29.9 in North 11.9 mph 14.3 mph 30 % 0 in open2300-1.11 W/m2
20:11 57.6 °F 27.9 °F 30 in North 21.9 mph 22.7 mph 32 % 0 in open2300-1.11 W/m2
21:10 55.4 °F 28 °F 30 in North 9.7 mph 29.4 mph 35 % 0 in open2300-1.11 W/m2
22:11 54 °F 26.1 °F 30 in NW 35.6 mph 35.6 mph 34 % 0 in open2300-1.11 W/m2
23:11 53.2 °F 30.6 °F 30.1 in Calm     42 % 0 in open2300-1.11 W/m2
Observations météo à CASSIS
WU-History script by Weather Underground - 1 mb